SJV692 WALL-WAQQ
Flight info
| Callsign | SJV692 |
|---|---|
| Flight time | 0h 50m |
| Altitude | 33000 |
| Route | SOSVO |
| Aircraft | A320/M-SDE3FGHIRWY/LB1 |
Departure
| Time | 2026-05-06 14:38 |
|---|---|
| Airport | Sultan Aji Muhammad Sulaiman Sepinggan International Airport (WALL) |
Arrival
| Time | 2026-05-06 15:28 |
|---|---|
| Airport | Juwata International Airport / Suharnoko Harbani AFB (WAQQ) |
| Time | Latitude | Longitude | Altitude | Speed | Heading |
|---|---|---|---|---|---|
| 2026-05-06 14:16 | -1.26192 | 116.90130 | 27 ft | 0 kts | 337° |
| 2026-05-06 14:28 | -1.26194 | 116.90130 | 26 ft | 1 kts | 337° |
| 2026-05-06 14:28 | -1.26209 | 116.90137 | 26 ft | 3 kts | 335° |
| 2026-05-06 14:29 | -1.26227 | 116.90146 | 26 ft | 3 kts | 328° |
| 2026-05-06 14:29 | -1.26243 | 116.90158 | 26 ft | 3 kts | 310° |
| 2026-05-06 14:29 | -1.26252 | 116.90172 | 26 ft | 2 kts | 261° |
| 2026-05-06 14:29 | -1.26251 | 116.90178 | 26 ft | 0 kts | 246° |
| 2026-05-06 14:32 | -1.26254 | 116.90172 | 26 ft | 2 kts | 246° |
| 2026-05-06 14:33 | -1.26262 | 116.90152 | 26 ft | 4 kts | 246° |
| 2026-05-06 14:33 | -1.26278 | 116.90116 | 26 ft | 7 kts | 246° |
| 2026-05-06 14:33 | -1.26301 | 116.90065 | 26 ft | 9 kts | 243° |
| 2026-05-06 14:33 | -1.26358 | 116.90057 | 26 ft | 11 kts | 138° |
| 2026-05-06 14:34 | -1.26366 | 116.90111 | 26 ft | 8 kts | 85° |
| 2026-05-06 14:34 | -1.26346 | 116.90173 | 26 ft | 11 kts | 66° |
| 2026-05-06 14:34 | -1.26313 | 116.90251 | 26 ft | 14 kts | 66° |
| 2026-05-06 14:34 | -1.26272 | 116.90346 | 26 ft | 16 kts | 66° |
| 2026-05-06 14:35 | -1.26261 | 116.90377 | 26 ft | 2 kts | 88° |
| 2026-05-06 14:35 | -1.26262 | 116.90400 | 26 ft | 5 kts | 94° |
| 2026-05-06 14:35 | -1.26272 | 116.90441 | 26 ft | 7 kts | 115° |
| 2026-05-06 14:35 | -1.26311 | 116.90454 | 26 ft | 6 kts | 156° |
| 2026-05-06 14:36 | -1.26359 | 116.90472 | 26 ft | 8 kts | 184° |
| 2026-05-06 14:36 | -1.26398 | 116.90461 | 26 ft | 8 kts | 205° |
| 2026-05-06 14:36 | -1.26424 | 116.90418 | 26 ft | 8 kts | 242° |
| 2026-05-06 14:36 | -1.26431 | 116.90404 | 26 ft | 1 kts | 244° |
| 2026-05-06 14:37 | -1.26438 | 116.90388 | 26 ft | 5 kts | 247° |
| 2026-05-06 14:37 | -1.26518 | 116.90197 | 26 ft | 65 kts | 247° |
| 2026-05-06 14:37 | -1.26787 | 116.89565 | 27 ft | 131 kts | 247° |
| 2026-05-06 14:37 | -1.27216 | 116.88564 | 74 ft | 176 kts | 246° |
| 2026-05-06 14:38 | -1.27717 | 116.87399 | 534 ft | 184 kts | 246° |
| 2026-05-06 14:38 | -1.28189 | 116.86257 | 1343 ft | 170 kts | 248° |
| 2026-05-06 14:38 | -1.28602 | 116.85133 | 1657 ft | 178 kts | 256° |
| 2026-05-06 14:38 | -1.28539 | 116.83874 | 1802 ft | 192 kts | 291° |
| 2026-05-06 14:39 | -1.27647 | 116.82849 | 2044 ft | 207 kts | 330° |
| 2026-05-06 14:39 | -1.26206 | 116.82520 | 2295 ft | 224 kts | 5° |
| 2026-05-06 14:39 | -1.24636 | 116.82838 | 2737 ft | 236 kts | 15° |
| 2026-05-06 14:39 | -1.23001 | 116.83250 | 3192 ft | 249 kts | 13° |
| 2026-05-06 14:40 | -1.21249 | 116.83568 | 3677 ft | 262 kts | 9° |
| 2026-05-06 14:40 | -1.19402 | 116.83831 | 4207 ft | 273 kts | 9° |
| 2026-05-06 14:40 | -1.17511 | 116.84121 | 4891 ft | 277 kts | 10° |
| 2026-05-06 14:40 | -1.15599 | 116.84448 | 5598 ft | 280 kts | 11° |
| 2026-05-06 14:41 | -1.13677 | 116.84786 | 6289 ft | 282 kts | 11° |
| 2026-05-06 14:41 | -1.11725 | 116.85116 | 6963 ft | 285 kts | 11° |
| 2026-05-06 14:41 | -1.09756 | 116.85440 | 7602 ft | 289 kts | 10° |
| 2026-05-06 14:41 | -1.07759 | 116.85769 | 8224 ft | 292 kts | 10° |
| 2026-05-06 14:42 | -1.05747 | 116.86105 | 8823 ft | 295 kts | 10° |
| 2026-05-06 14:42 | -1.03713 | 116.86447 | 9403 ft | 298 kts | 10° |
| 2026-05-06 14:42 | -1.01657 | 116.86793 | 10007 ft | 300 kts | 10° |
| 2026-05-06 14:42 | -0.99584 | 116.87139 | 10508 ft | 306 kts | 10° |
| 2026-05-06 14:43 | -0.97436 | 116.87497 | 10819 ft | 319 kts | 10° |
| 2026-05-06 14:43 | -0.95201 | 116.87871 | 11087 ft | 332 kts | 10° |
| 2026-05-06 14:43 | -0.92881 | 116.88259 | 11329 ft | 345 kts | 10° |
| 2026-05-06 14:43 | -0.90464 | 116.88662 | 11550 ft | 358 kts | 9° |
| 2026-05-06 14:44 | -0.87980 | 116.89077 | 11895 ft | 365 kts | 9° |
| 2026-05-06 14:44 | -0.85465 | 116.89498 | 12417 ft | 367 kts | 9° |
| 2026-05-06 14:44 | -0.82933 | 116.89920 | 12936 ft | 369 kts | 10° |
| 2026-05-06 14:45 | -0.77840 | 116.90770 | 13905 ft | 374 kts | 10° |
| 2026-05-06 14:45 | -0.75263 | 116.91202 | 14374 ft | 376 kts | 10° |
| 2026-05-06 14:45 | -0.72677 | 116.91635 | 14848 ft | 378 kts | 10° |
| 2026-05-06 14:45 | -0.70069 | 116.92071 | 15295 ft | 381 kts | 10° |
| 2026-05-06 14:46 | -0.67452 | 116.92508 | 15741 ft | 383 kts | 10° |
| 2026-05-06 14:46 | -0.64817 | 116.92947 | 16175 ft | 385 kts | 10° |
| 2026-05-06 14:46 | -0.62165 | 116.93390 | 16594 ft | 387 kts | 10° |
| 2026-05-06 14:46 | -0.59503 | 116.93835 | 17023 ft | 389 kts | 10° |
| 2026-05-06 14:47 | -0.56829 | 116.94283 | 17441 ft | 391 kts | 10° |
| 2026-05-06 14:47 | -0.54141 | 116.94732 | 17841 ft | 393 kts | 10° |
| 2026-05-06 14:47 | -0.51436 | 116.95183 | 18244 ft | 395 kts | 10° |
| 2026-05-06 14:47 | -0.48719 | 116.95637 | 18616 ft | 397 kts | 10° |
| 2026-05-06 14:48 | -0.45981 | 116.96095 | 18980 ft | 400 kts | 10° |
| 2026-05-06 14:48 | -0.43229 | 116.96555 | 19333 ft | 402 kts | 10° |
| 2026-05-06 14:48 | -0.40464 | 116.97017 | 19671 ft | 405 kts | 10° |
| 2026-05-06 14:48 | -0.37676 | 116.97483 | 20007 ft | 407 kts | 10° |
| 2026-05-06 14:49 | -0.34836 | 116.97957 | 20329 ft | 410 kts | 10° |
| 2026-05-06 14:49 | -0.32013 | 116.98428 | 20646 ft | 412 kts | 10° |
| 2026-05-06 14:49 | -0.29174 | 116.98903 | 20953 ft | 415 kts | 10° |
| 2026-05-06 14:49 | -0.26326 | 116.99379 | 21265 ft | 417 kts | 11° |
| 2026-05-06 14:50 | -0.23495 | 116.99853 | 21559 ft | 419 kts | 11° |
| 2026-05-06 14:50 | -0.20576 | 117.00340 | 21843 ft | 421 kts | 11° |
| 2026-05-06 14:50 | -0.17682 | 117.00823 | 22130 ft | 423 kts | 11° |
| 2026-05-06 14:50 | -0.14812 | 117.01303 | 22384 ft | 425 kts | 11° |
| 2026-05-06 14:51 | -0.11889 | 117.01792 | 22645 ft | 427 kts | 11° |
| 2026-05-06 14:51 | -0.08954 | 117.02282 | 22898 ft | 429 kts | 11° |
| 2026-05-06 14:51 | -0.06006 | 117.02775 | 23152 ft | 431 kts | 11° |
| 2026-05-06 14:51 | -0.03002 | 117.03277 | 23394 ft | 433 kts | 11° |
| 2026-05-06 14:52 | -0.00036 | 117.03772 | 23640 ft | 434 kts | 11° |
| 2026-05-06 14:52 | 0.02954 | 117.04271 | 23886 ft | 436 kts | 11° |
| 2026-05-06 14:52 | 0.05952 | 117.04772 | 24120 ft | 437 kts | 11° |
| 2026-05-06 14:52 | 0.08953 | 117.05274 | 24357 ft | 439 kts | 11° |
| 2026-05-06 14:53 | 0.11959 | 117.05777 | 24692 ft | 437 kts | 11° |
| 2026-05-06 14:53 | 0.14951 | 117.06276 | 24874 ft | 434 kts | 11° |
| 2026-05-06 14:53 | 0.17919 | 117.06771 | 24871 ft | 432 kts | 11° |
| 2026-05-06 14:53 | 0.20884 | 117.07268 | 24868 ft | 432 kts | 11° |
| 2026-05-06 14:54 | 0.23848 | 117.07764 | 24866 ft | 432 kts | 11° |
| 2026-05-06 14:54 | 0.26813 | 117.08260 | 24865 ft | 432 kts | 11° |
| 2026-05-06 14:54 | 0.29781 | 117.08755 | 24865 ft | 432 kts | 11° |
| 2026-05-06 14:54 | 0.32747 | 117.09249 | 24864 ft | 432 kts | 11° |
| 2026-05-06 14:55 | 0.35709 | 117.09744 | 24864 ft | 432 kts | 11° |
| 2026-05-06 14:55 | 0.38674 | 117.10241 | 24865 ft | 432 kts | 11° |
| 2026-05-06 14:55 | 0.41635 | 117.10736 | 24867 ft | 432 kts | 11° |
| 2026-05-06 14:55 | 0.44597 | 117.11232 | 24866 ft | 432 kts | 11° |
| 2026-05-06 14:56 | 0.47566 | 117.11727 | 24862 ft | 432 kts | 11° |
| 2026-05-06 14:56 | 0.50529 | 117.12222 | 24860 ft | 432 kts | 11° |
| 2026-05-06 14:56 | 0.53490 | 117.12717 | 24858 ft | 432 kts | 11° |
| 2026-05-06 14:56 | 0.56457 | 117.13212 | 24853 ft | 432 kts | 11° |
| 2026-05-06 14:57 | 0.59419 | 117.13707 | 24845 ft | 432 kts | 11° |
| 2026-05-06 14:57 | 0.62382 | 117.14202 | 24844 ft | 432 kts | 11° |
| 2026-05-06 14:57 | 0.65342 | 117.14697 | 24843 ft | 432 kts | 11° |
| 2026-05-06 14:57 | 0.68307 | 117.15193 | 24833 ft | 432 kts | 11° |
| 2026-05-06 14:58 | 0.71270 | 117.15688 | 24826 ft | 432 kts | 11° |
| 2026-05-06 14:58 | 0.74239 | 117.16185 | 24818 ft | 432 kts | 11° |
| 2026-05-06 14:58 | 0.77200 | 117.16679 | 24818 ft | 432 kts | 11° |
| 2026-05-06 14:58 | 0.80161 | 117.17174 | 24819 ft | 432 kts | 11° |
| 2026-05-06 14:59 | 0.83124 | 117.17670 | 24820 ft | 432 kts | 11° |
| 2026-05-06 14:59 | 0.86085 | 117.18165 | 24821 ft | 432 kts | 11° |
| 2026-05-06 14:59 | 0.89043 | 117.18659 | 24822 ft | 432 kts | 11° |
| 2026-05-06 14:59 | 0.92006 | 117.19154 | 24824 ft | 432 kts | 11° |
| 2026-05-06 15:00 | 0.94972 | 117.19650 | 24822 ft | 432 kts | 11° |
| 2026-05-06 15:00 | 0.97936 | 117.20146 | 24826 ft | 432 kts | 11° |
| 2026-05-06 15:00 | 1.00900 | 117.20641 | 24828 ft | 432 kts | 11° |
| 2026-05-06 15:00 | 1.03856 | 117.21135 | 24845 ft | 431 kts | 11° |
| 2026-05-06 15:01 | 1.06817 | 117.21630 | 24872 ft | 431 kts | 11° |
| 2026-05-06 15:01 | 1.09773 | 117.22124 | 24895 ft | 430 kts | 11° |
| 2026-05-06 15:01 | 1.12723 | 117.22617 | 24890 ft | 430 kts | 11° |
| 2026-05-06 15:01 | 1.15681 | 117.23111 | 24871 ft | 431 kts | 11° |
| 2026-05-06 15:02 | 1.18636 | 117.23605 | 24852 ft | 431 kts | 11° |
| 2026-05-06 15:02 | 1.21591 | 117.24100 | 24853 ft | 431 kts | 11° |
| 2026-05-06 15:02 | 1.24545 | 117.24594 | 24845 ft | 431 kts | 11° |
| 2026-05-06 15:02 | 1.27498 | 117.25087 | 24831 ft | 431 kts | 11° |
| 2026-05-06 15:03 | 1.30454 | 117.25581 | 24825 ft | 430 kts | 11° |
| 2026-05-06 15:03 | 1.33407 | 117.26075 | 24827 ft | 430 kts | 11° |
| 2026-05-06 15:03 | 1.36358 | 117.26569 | 24828 ft | 430 kts | 11° |
| 2026-05-06 15:03 | 1.39305 | 117.27061 | 24829 ft | 429 kts | 11° |
| 2026-05-06 15:04 | 1.42239 | 117.27552 | 24828 ft | 428 kts | 11° |
| 2026-05-06 15:04 | 1.45171 | 117.28042 | 24828 ft | 426 kts | 11° |
| 2026-05-06 15:04 | 1.48085 | 117.28529 | 24827 ft | 424 kts | 11° |
| 2026-05-06 15:04 | 1.51001 | 117.29016 | 24846 ft | 427 kts | 11° |
| 2026-05-06 15:05 | 1.53947 | 117.29510 | 24858 ft | 430 kts | 11° |
| 2026-05-06 15:05 | 1.56907 | 117.30005 | 24865 ft | 432 kts | 11° |
| 2026-05-06 15:05 | 1.59873 | 117.30501 | 24870 ft | 432 kts | 11° |
| 2026-05-06 15:05 | 1.62837 | 117.30996 | 24873 ft | 432 kts | 11° |
| 2026-05-06 15:06 | 1.65797 | 117.31491 | 24876 ft | 432 kts | 11° |
| 2026-05-06 15:06 | 1.68759 | 117.31987 | 24877 ft | 432 kts | 11° |
| 2026-05-06 15:06 | 1.71722 | 117.32482 | 24878 ft | 432 kts | 11° |
| 2026-05-06 15:06 | 1.74688 | 117.32977 | 24879 ft | 432 kts | 11° |
| 2026-05-06 15:07 | 1.77646 | 117.33472 | 24876 ft | 432 kts | 11° |
| 2026-05-06 15:07 | 1.80609 | 117.33968 | 24870 ft | 432 kts | 11° |
| 2026-05-06 15:07 | 1.83571 | 117.34465 | 24867 ft | 432 kts | 11° |
| 2026-05-06 15:07 | 1.86522 | 117.34958 | 24820 ft | 426 kts | 11° |
| 2026-05-06 15:08 | 1.89400 | 117.35438 | 24681 ft | 414 kts | 11° |
| 2026-05-06 15:08 | 1.92206 | 117.35906 | 24466 ft | 403 kts | 11° |
| 2026-05-06 15:08 | 1.94938 | 117.36363 | 24171 ft | 395 kts | 11° |
| 2026-05-06 15:08 | 1.97638 | 117.36816 | 23690 ft | 393 kts | 11° |
| 2026-05-06 15:09 | 2.00322 | 117.37267 | 23225 ft | 390 kts | 11° |
| 2026-05-06 15:09 | 2.02984 | 117.37713 | 22770 ft | 386 kts | 11° |
| 2026-05-06 15:09 | 2.05661 | 117.38161 | 22301 ft | 383 kts | 11° |
| 2026-05-06 15:09 | 2.08289 | 117.38600 | 21824 ft | 381 kts | 11° |
| 2026-05-06 15:10 | 2.10856 | 117.39029 | 21378 ft | 378 kts | 11° |
| 2026-05-06 15:10 | 2.13440 | 117.39462 | 20929 ft | 375 kts | 11° |
| 2026-05-06 15:10 | 2.15999 | 117.39889 | 20489 ft | 371 kts | 11° |
| 2026-05-06 15:10 | 2.18539 | 117.40314 | 20056 ft | 368 kts | 11° |
| 2026-05-06 15:11 | 2.21090 | 117.40742 | 19611 ft | 365 kts | 11° |
| 2026-05-06 15:11 | 2.23582 | 117.41160 | 19162 ft | 363 kts | 11° |
| 2026-05-06 15:11 | 2.26064 | 117.41576 | 18718 ft | 360 kts | 11° |
| 2026-05-06 15:11 | 2.28533 | 117.41957 | 18277 ft | 358 kts | 9° |
| 2026-05-06 15:12 | 2.30164 | 117.42185 | 18001 ft | 356 kts | 9° |
| 2026-05-06 15:12 | 2.33430 | 117.42624 | 17451 ft | 352 kts | 9° |
| 2026-05-06 15:12 | 2.35033 | 117.42838 | 17161 ft | 351 kts | 8° |
| 2026-05-06 15:12 | 2.37448 | 117.43164 | 16715 ft | 349 kts | 9° |
| 2026-05-06 15:13 | 2.39845 | 117.43490 | 16287 ft | 347 kts | 9° |
| 2026-05-06 15:13 | 2.42228 | 117.43818 | 15872 ft | 344 kts | 8° |
| 2026-05-06 15:13 | 2.44589 | 117.44141 | 15467 ft | 341 kts | 8° |
| 2026-05-06 15:13 | 2.46937 | 117.44462 | 15059 ft | 339 kts | 8° |
| 2026-05-06 15:14 | 2.49263 | 117.44780 | 14642 ft | 337 kts | 8° |
| 2026-05-06 15:14 | 2.51586 | 117.45096 | 14209 ft | 335 kts | 8° |
| 2026-05-06 15:14 | 2.53888 | 117.45410 | 13798 ft | 333 kts | 8° |
| 2026-05-06 15:14 | 2.56181 | 117.45723 | 13389 ft | 331 kts | 8° |
| 2026-05-06 15:15 | 2.58454 | 117.46033 | 12989 ft | 329 kts | 8° |
| 2026-05-06 15:15 | 2.60712 | 117.46342 | 12596 ft | 327 kts | 8° |
| 2026-05-06 15:15 | 2.62950 | 117.46648 | 12233 ft | 322 kts | 8° |
| 2026-05-06 15:15 | 2.65152 | 117.46949 | 11852 ft | 316 kts | 8° |
| 2026-05-06 15:16 | 2.67306 | 117.47243 | 11476 ft | 310 kts | 8° |
| 2026-05-06 15:16 | 2.69431 | 117.47533 | 11099 ft | 307 kts | 8° |
| 2026-05-06 15:16 | 2.71534 | 117.47821 | 10722 ft | 303 kts | 8° |
| 2026-05-06 15:16 | 2.73611 | 117.48105 | 10355 ft | 300 kts | 8° |
| 2026-05-06 15:17 | 2.75659 | 117.48384 | 10185 ft | 297 kts | 8° |
| 2026-05-06 15:17 | 2.77709 | 117.48665 | 10057 ft | 297 kts | 8° |
| 2026-05-06 15:17 | 2.79781 | 117.48948 | 9761 ft | 296 kts | 8° |
| 2026-05-06 15:17 | 2.81789 | 117.49222 | 9396 ft | 293 kts | 8° |
| 2026-05-06 15:18 | 2.83795 | 117.49497 | 9033 ft | 290 kts | 8° |
| 2026-05-06 15:18 | 2.85811 | 117.49771 | 8671 ft | 287 kts | 8° |
| 2026-05-06 15:18 | 2.87773 | 117.50039 | 8309 ft | 284 kts | 8° |
| 2026-05-06 15:18 | 2.89721 | 117.50299 | 7963 ft | 281 kts | 6° |
| 2026-05-06 15:19 | 2.91653 | 117.50226 | 7632 ft | 277 kts | 346° |
| 2026-05-06 15:19 | 2.93423 | 117.49520 | 7308 ft | 273 kts | 333° |
| 2026-05-06 15:19 | 2.95087 | 117.48606 | 6958 ft | 271 kts | 331° |
| 2026-05-06 15:19 | 2.96730 | 117.47694 | 6616 ft | 269 kts | 333° |
| 2026-05-06 15:20 | 2.98392 | 117.46852 | 6275 ft | 266 kts | 335° |
| 2026-05-06 15:20 | 3.00058 | 117.46065 | 5938 ft | 264 kts | 335° |
| 2026-05-06 15:20 | 3.01710 | 117.45279 | 5605 ft | 261 kts | 335° |
| 2026-05-06 15:20 | 3.03331 | 117.44478 | 5283 ft | 259 kts | 334° |
| 2026-05-06 15:21 | 3.04937 | 117.43671 | 4968 ft | 259 kts | 334° |
| 2026-05-06 15:21 | 3.06563 | 117.42868 | 4634 ft | 262 kts | 335° |
| 2026-05-06 15:21 | 3.08211 | 117.42065 | 4296 ft | 265 kts | 335° |
| 2026-05-06 15:21 | 3.09874 | 117.41251 | 4012 ft | 268 kts | 335° |
| 2026-05-06 15:22 | 3.11516 | 117.40454 | 3985 ft | 255 kts | 335° |
| 2026-05-06 15:22 | 3.13065 | 117.39707 | 3984 ft | 240 kts | 335° |
| 2026-05-06 15:22 | 3.14532 | 117.38984 | 3988 ft | 231 kts | 335° |
| 2026-05-06 15:22 | 3.15961 | 117.38274 | 3987 ft | 229 kts | 335° |
| 2026-05-06 15:23 | 3.17427 | 117.37665 | 3982 ft | 228 kts | 349° |
| 2026-05-06 15:23 | 3.18977 | 117.37746 | 3968 ft | 224 kts | 23° |
| 2026-05-06 15:23 | 3.20226 | 117.38628 | 3840 ft | 218 kts | 46° |
| 2026-05-06 15:23 | 3.21313 | 117.39638 | 3751 ft | 208 kts | 41° |
| 2026-05-06 15:24 | 3.22393 | 117.40536 | 3618 ft | 198 kts | 44° |
| 2026-05-06 15:24 | 3.23250 | 117.41585 | 3357 ft | 192 kts | 57° |
| 2026-05-06 15:24 | 3.23950 | 117.42709 | 3097 ft | 188 kts | 59° |
| 2026-05-06 15:24 | 3.24618 | 117.43810 | 2869 ft | 182 kts | 58° |
| 2026-05-06 15:25 | 3.25287 | 117.44869 | 2617 ft | 178 kts | 58° |
| 2026-05-06 15:25 | 3.25936 | 117.45901 | 2373 ft | 172 kts | 58° |
| 2026-05-06 15:25 | 3.26558 | 117.46893 | 2137 ft | 164 kts | 58° |
| 2026-05-06 15:25 | 3.27163 | 117.47856 | 1920 ft | 163 kts | 58° |
| 2026-05-06 15:26 | 3.27759 | 117.48805 | 1717 ft | 161 kts | 58° |
| 2026-05-06 15:26 | 3.28348 | 117.49742 | 1485 ft | 155 kts | 58° |
| 2026-05-06 15:26 | 3.28905 | 117.50630 | 1281 ft | 146 kts | 58° |
| 2026-05-06 15:26 | 3.29431 | 117.51468 | 1146 ft | 142 kts | 58° |
| 2026-05-06 15:27 | 3.29955 | 117.52301 | 933 ft | 141 kts | 58° |
| 2026-05-06 15:27 | 3.30475 | 117.53129 | 734 ft | 140 kts | 58° |
| 2026-05-06 15:27 | 3.30995 | 117.53957 | 536 ft | 140 kts | 58° |
| 2026-05-06 15:27 | 3.31512 | 117.54780 | 351 ft | 140 kts | 58° |
| 2026-05-06 15:28 | 3.32028 | 117.55602 | 167 ft | 139 kts | 58° |
| 2026-05-06 15:28 | 3.32535 | 117.56415 | 36 ft | 133 kts | 58° |
| 2026-05-06 15:28 | 3.32937 | 117.57068 | 34 ft | 84 kts | 58° |
| 2026-05-06 15:28 | 3.33111 | 117.57336 | 34 ft | 9 kts | 56° |
| 2026-05-06 15:29 | 3.33130 | 117.57398 | 34 ft | 7 kts | 133° |
| 2026-05-06 15:29 | 3.33115 | 117.57374 | 34 ft | 6 kts | 257° |
| 2026-05-06 15:29 | 3.33100 | 117.57327 | 34 ft | 8 kts | 243° |
| 2026-05-06 15:29 | 3.33067 | 117.57272 | 34 ft | 10 kts | 239° |
| 2026-05-06 15:30 | 3.33023 | 117.57204 | 34 ft | 13 kts | 237° |
| 2026-05-06 15:30 | 3.32964 | 117.57119 | 34 ft | 17 kts | 234° |
| 2026-05-06 15:30 | 3.32890 | 117.57009 | 34 ft | 21 kts | 238° |
| 2026-05-06 15:30 | 3.32834 | 117.56922 | 34 ft | 11 kts | 231° |
| 2026-05-06 15:31 | 3.32763 | 117.56916 | 34 ft | 12 kts | 144° |
| 2026-05-06 15:31 | 3.32703 | 117.56928 | 34 ft | 7 kts | 237° |
| 2026-05-06 15:31 | 3.32685 | 117.56883 | 34 ft | 8 kts | 232° |
| 2026-05-06 15:32 | 3.32608 | 117.56764 | 34 ft | 12 kts | 238° |
| 2026-05-06 15:32 | 3.32586 | 117.56729 | 34 ft | 1 kts | 239° |
| 2026-05-06 15:32 | 3.32578 | 117.56716 | 34 ft | 2 kts | 225° |
| 2026-05-06 15:32 | 3.32556 | 117.56712 | 34 ft | 3 kts | 162° |
| 2026-05-06 15:33 | 3.32529 | 117.56726 | 34 ft | 6 kts | 159° |
| 2026-05-06 15:33 | 3.32507 | 117.56733 | 34 ft | 1 kts | 162° |
| 2026-05-06 15:33 | 3.32494 | 117.56737 | 34 ft | 3 kts | 161° |
| 2026-05-06 15:33 | 3.32480 | 117.56745 | 34 ft | 3 kts | 142° |
| 2026-05-06 15:34 | 3.32465 | 117.56755 | 34 ft | 0 kts | 148° |
| 2026-05-06 15:34 | 3.32461 | 117.56758 | 34 ft | 0 kts | 148° |